createdAt,value
2022-11-14T00:00:29.885Z,24.13
2022-11-14T00:01:50.618Z,24.12
2022-11-14T00:03:13.674Z,24.12
2022-11-14T00:04:34.469Z,24.13
2022-11-14T00:05:55.690Z,24.13
2022-11-14T00:07:16.305Z,24.14
2022-11-14T00:08:37.092Z,24.13
2022-11-14T00:09:58.103Z,24.13
2022-11-14T00:11:18.405Z,24.14
2022-11-14T00:12:39.241Z,24.14
2022-11-14T00:14:00.011Z,24.14
2022-11-14T00:15:21.136Z,24.15
2022-11-14T00:16:42.025Z,24.15
2022-11-14T00:18:05.154Z,24.15
2022-11-14T00:19:26.024Z,24.15
2022-11-14T00:20:48.146Z,24.15
2022-11-14T00:22:10.076Z,24.15
2022-11-14T00:23:30.993Z,24.16
2022-11-14T00:24:51.448Z,24.16
2022-11-14T00:26:12.099Z,24.16
2022-11-14T00:27:32.509Z,24.16
2022-11-14T00:30:08.080Z,24.28
2022-11-14T00:31:29.446Z,24.17
2022-11-14T00:32:50.612Z,24.16
2022-11-14T00:34:11.857Z,24.16
2022-11-14T00:35:32.607Z,24.18
2022-11-14T00:36:53.638Z,24.19
2022-11-14T00:38:14.266Z,24.18
2022-11-14T00:39:35.259Z,24.20
2022-11-14T00:40:55.673Z,24.19
2022-11-14T00:42:17.592Z,24.20
2022-11-14T00:43:38.002Z,24.18
2022-11-14T00:44:58.999Z,24.19
2022-11-14T00:46:19.372Z,24.21
2022-11-14T00:47:40.192Z,24.20
2022-11-14T00:49:01.501Z,24.19
2022-11-14T00:50:22.275Z,24.19
2022-11-14T00:51:42.854Z,24.20
2022-11-14T00:53:03.887Z,24.19
2022-11-14T00:54:24.680Z,24.20
2022-11-14T00:55:45.953Z,24.20
2022-11-14T00:57:06.635Z,24.20
2022-11-14T00:58:28.399Z,24.21
2022-11-14T00:59:49.371Z,24.21
2022-11-14T01:01:10.023Z,24.20
2022-11-14T01:02:30.923Z,24.20
2022-11-14T01:03:51.778Z,24.19
2022-11-14T01:05:12.458Z,24.20
2022-11-14T01:06:33.458Z,24.20
2022-11-14T01:07:54.074Z,24.20
2022-11-14T01:09:15.474Z,24.20
2022-11-14T01:10:43.426Z,24.21
2022-11-14T01:12:04.467Z,24.20
2022-11-14T01:13:25.816Z,24.20
2022-11-14T01:14:46.388Z,24.20
2022-11-14T01:16:07.370Z,24.20
2022-11-14T01:17:28.019Z,24.20
2022-11-14T01:18:49.956Z,24.20
2022-11-14T01:20:12.066Z,24.21
2022-11-14T01:21:32.460Z,24.21
2022-11-14T01:22:53.324Z,24.23
2022-11-14T01:24:14.732Z,24.22
2022-11-14T01:25:37.384Z,24.23
2022-11-14T01:26:57.924Z,24.23
2022-11-14T01:28:18.979Z,24.22
2022-11-14T01:29:40.088Z,24.22
2022-11-14T01:31:15.471Z,24.22
2022-11-14T01:32:36.223Z,24.22
2022-11-14T01:33:56.688Z,24.22
2022-11-14T01:35:17.518Z,24.22
2022-11-14T01:36:38.106Z,24.22
2022-11-14T01:37:59.516Z,24.21
2022-11-14T01:39:21.089Z,24.22
2022-11-14T01:40:43.721Z,24.22
2022-11-14T01:42:04.596Z,24.22
2022-11-14T01:43:27.723Z,24.22
2022-11-14T01:44:51.246Z,24.23
2022-11-14T01:46:24.535Z,24.22
2022-11-14T01:47:44.913Z,24.23
2022-11-14T01:49:18.491Z,24.24
2022-11-14T01:50:39.700Z,24.22
2022-11-14T01:53:20.317Z,24.33
2022-11-14T01:54:44.754Z,24.22
2022-11-14T01:56:06.385Z,24.22
2022-11-14T01:58:43.558Z,24.34
2022-11-14T02:00:07.415Z,24.23
2022-11-14T02:01:29.710Z,24.24
2022-11-14T02:02:50.422Z,24.24
2022-11-14T02:04:15.124Z,24.23
2022-11-14T02:05:33.842Z,24.20
2022-11-14T02:06:56.938Z,24.17
2022-11-14T02:08:17.914Z,24.14
2022-11-14T02:09:40.280Z,24.11
2022-11-14T02:11:01.531Z,24.07
2022-11-14T02:12:22.232Z,24.03
2022-11-14T02:13:43.003Z,24.00
2022-11-14T02:15:05.016Z,23.97
2022-11-14T02:16:26.425Z,23.94
2022-11-14T02:17:47.863Z,23.91
2022-11-14T02:19:08.535Z,23.89
2022-11-14T02:20:30.194Z,23.86
2022-11-14T02:21:51.391Z,23.83
2022-11-14T02:23:14.205Z,23.81
2022-11-14T02:24:34.790Z,23.79
2022-11-14T02:25:57.151Z,23.75
2022-11-14T02:27:17.952Z,23.72
2022-11-14T02:28:39.975Z,23.69
2022-11-14T02:30:05.891Z,23.68
2022-11-14T02:31:26.602Z,23.64
2022-11-14T02:34:09.960Z,23.58
2022-11-14T02:35:31.630Z,23.58
2022-11-14T02:36:52.305Z,23.54
2022-11-14T02:38:13.158Z,23.49
2022-11-14T02:39:34.040Z,23.46
2022-11-14T02:40:54.803Z,23.41
2022-11-14T02:42:15.703Z,23.35
2022-11-14T02:43:37.110Z,23.31
2022-11-14T02:44:57.434Z,23.28
2022-11-14T02:46:18.180Z,23.24
2022-11-14T02:47:38.678Z,23.22
2022-11-14T02:48:59.529Z,23.19
2022-11-14T02:50:20.788Z,23.16
2022-11-14T02:51:41.534Z,23.14
2022-11-14T02:53:03.380Z,23.11
2022-11-14T02:54:24.539Z,23.09
2022-11-14T02:55:45.410Z,23.08
2022-11-14T02:57:06.328Z,23.05
2022-11-14T02:58:27.371Z,23.03
2022-11-14T02:59:48.293Z,23.02
2022-11-14T03:01:24.393Z,23.02
2022-11-14T03:02:31.458Z,23.02
2022-11-14T03:03:52.142Z,22.99
2022-11-14T03:05:13.050Z,22.99
2022-11-14T03:06:35.522Z,22.99
2022-11-14T03:07:55.875Z,22.98
2022-11-14T03:09:17.272Z,22.98
2022-11-14T03:10:37.975Z,22.97
2022-11-14T03:11:58.595Z,22.98
2022-11-14T03:13:19.396Z,22.98
2022-11-14T03:14:40.360Z,22.98
2022-11-14T03:16:08.138Z,22.98
2022-11-14T03:17:31.977Z,22.98
2022-11-14T03:18:52.700Z,22.97
2022-11-14T03:20:14.069Z,22.97
2022-11-14T03:21:34.799Z,22.98
2022-11-14T03:22:56.535Z,22.98
2022-11-14T03:24:18.059Z,22.97
2022-11-14T03:25:39.100Z,22.97
2022-11-14T03:26:59.829Z,22.97
2022-11-14T03:28:20.538Z,22.98
2022-11-14T03:29:41.303Z,22.98
2022-11-14T03:31:02.147Z,22.98
2022-11-14T03:32:23.178Z,22.97
2022-11-14T03:33:43.664Z,22.97
2022-11-14T03:35:06.000Z,22.98
2022-11-14T03:36:26.658Z,22.97
2022-11-14T03:37:47.476Z,22.97
2022-11-14T03:39:08.198Z,22.96
2022-11-14T03:40:28.933Z,22.97
2022-11-14T03:41:49.796Z,22.98
2022-11-14T03:43:10.551Z,22.98
2022-11-14T03:44:32.730Z,23.00
2022-11-14T03:45:53.572Z,23.00
2022-11-14T03:47:14.436Z,23.01
2022-11-14T03:48:35.378Z,23.01
2022-11-14T03:49:57.313Z,23.03
2022-11-14T03:51:18.864Z,23.04
2022-11-14T03:52:39.758Z,23.03
2022-11-14T03:54:00.597Z,23.04
2022-11-14T03:55:22.440Z,23.04
2022-11-14T03:56:43.138Z,23.06
2022-11-14T06:14:24.210Z,20.58
2022-11-14T06:15:44.911Z,20.53
2022-11-14T06:17:05.748Z,20.63
2022-11-14T06:18:26.987Z,20.73
2022-11-14T06:19:47.942Z,20.85
2022-11-14T06:21:14.102Z,20.98
2022-11-14T06:22:36.096Z,21.11
2022-11-14T06:23:56.853Z,21.24
2022-11-14T06:25:17.488Z,21.37
2022-11-14T06:26:38.917Z,21.48
2022-11-14T06:28:01.187Z,21.59
2022-11-14T06:29:21.705Z,21.72
2022-11-14T06:30:42.504Z,21.80
2022-11-14T06:32:03.065Z,21.90
2022-11-14T06:33:23.817Z,21.99
2022-11-14T06:34:45.667Z,22.07
2022-11-14T06:36:07.694Z,22.15
2022-11-14T06:37:32.566Z,22.22
2022-11-14T06:38:50.289Z,22.30
2022-11-14T06:40:13.452Z,22.37
2022-11-14T06:41:34.151Z,22.42
2022-11-14T06:42:56.574Z,22.47
2022-11-14T06:44:17.563Z,22.38
2022-11-14T06:45:38.601Z,22.56
2022-11-14T06:47:00.675Z,22.61
2022-11-14T06:48:22.793Z,22.64
2022-11-14T06:49:43.825Z,22.67
2022-11-14T06:51:05.343Z,22.71
2022-11-14T06:52:26.005Z,22.74
2022-11-14T06:53:46.981Z,22.76
2022-11-14T06:55:07.852Z,22.79
2022-11-14T06:56:28.634Z,22.80
2022-11-14T06:57:55.965Z,22.82
2022-11-14T06:59:17.688Z,22.83
2022-11-14T07:00:38.255Z,22.85
2022-11-14T07:01:59.350Z,22.85
2022-11-14T07:03:20.448Z,22.88
2022-11-14T07:04:41.848Z,22.88
2022-11-14T07:06:04.215Z,22.90
2022-11-14T07:07:25.289Z,22.91
2022-11-14T07:10:08.962Z,22.94
2022-11-14T07:11:29.674Z,22.95
2022-11-14T07:12:51.179Z,22.95
2022-11-14T07:14:12.773Z,22.97
2022-11-14T07:15:34.281Z,22.97
2022-11-14T07:16:55.136Z,22.98
2022-11-14T07:18:17.256Z,22.98
2022-11-14T07:19:37.793Z,22.99
2022-11-14T07:20:59.908Z,23.00
2022-11-14T07:22:22.818Z,22.99
2022-11-14T07:23:44.128Z,22.99
2022-11-14T07:25:06.309Z,23.00
2022-11-14T07:26:26.798Z,23.00
2022-11-14T07:27:48.038Z,23.00
2022-11-14T07:29:09.343Z,23.00
2022-11-14T07:30:30.428Z,23.00
2022-11-14T07:31:51.895Z,23.02
2022-11-14T07:33:12.930Z,23.01
2022-11-14T07:34:33.787Z,23.02
2022-11-14T07:35:55.478Z,23.02
2022-11-14T07:37:16.223Z,23.01
2022-11-14T07:38:38.222Z,23.03
2022-11-14T07:39:59.617Z,23.04
2022-11-14T07:41:20.542Z,23.04
2022-11-14T07:42:41.326Z,23.04
2022-11-14T07:44:02.356Z,23.05
2022-11-14T07:45:23.196Z,23.06
2022-11-14T07:46:43.959Z,23.07
2022-11-14T07:48:07.361Z,23.07
2022-11-14T07:49:28.096Z,23.07
2022-11-14T07:50:49.491Z,23.08
2022-11-14T07:52:10.839Z,23.07
2022-11-14T07:53:31.717Z,23.07
2022-11-14T07:54:53.467Z,23.07
2022-11-14T07:56:15.272Z,23.08
2022-11-14T07:57:41.068Z,23.07
2022-11-14T07:58:58.415Z,23.08
2022-11-14T08:00:20.653Z,23.08
2022-11-14T08:01:42.371Z,23.09
2022-11-14T08:03:03.637Z,23.09
2022-11-14T08:04:24.557Z,23.08
2022-11-14T08:05:45.869Z,23.08
2022-11-14T08:07:07.943Z,23.08
2022-11-14T08:08:29.424Z,23.08
2022-11-14T08:09:51.847Z,23.07
2022-11-14T08:11:12.636Z,23.08
2022-11-14T08:12:33.895Z,23.09
2022-11-14T08:13:55.708Z,23.08
2022-11-14T08:15:16.642Z,23.09
2022-11-14T08:16:37.412Z,23.08
2022-11-14T08:17:58.981Z,23.08
2022-11-14T08:19:19.781Z,23.09
2022-11-14T08:20:40.712Z,23.08
2022-11-14T08:22:01.557Z,23.08
2022-11-14T08:23:22.372Z,23.08
2022-11-14T08:24:43.783Z,23.09
2022-11-14T08:26:05.439Z,23.09
2022-11-14T08:27:26.046Z,23.09
2022-11-14T08:28:48.085Z,23.09
2022-11-14T08:30:11.320Z,23.10
2022-11-14T08:31:33.111Z,23.09
2022-11-14T08:32:53.973Z,23.09
2022-11-14T08:34:15.320Z,23.09
2022-11-14T08:35:36.828Z,23.09
2022-11-14T08:36:57.511Z,23.09
2022-11-14T08:38:18.365Z,23.08
2022-11-14T08:39:39.244Z,23.09
2022-11-14T08:41:01.262Z,23.09
2022-11-14T08:42:23.793Z,23.09
2022-11-14T08:43:45.514Z,23.08
2022-11-14T08:45:07.435Z,23.08
2022-11-14T08:46:28.460Z,23.08
2022-11-14T08:47:52.735Z,23.08
2022-11-14T08:49:13.784Z,23.08
2022-11-14T08:50:34.683Z,23.08
2022-11-14T08:51:55.219Z,23.09
2022-11-14T08:53:16.163Z,23.08
2022-11-14T08:54:37.005Z,23.08
2022-11-14T08:55:58.906Z,23.08
2022-11-14T08:57:19.890Z,23.09
2022-11-14T08:58:41.649Z,23.09
2022-11-14T09:00:04.543Z,23.09
2022-11-14T09:01:25.390Z,23.10
2022-11-14T09:02:46.455Z,23.10
2022-11-14T09:04:07.098Z,23.09
2022-11-14T09:05:28.370Z,23.09
2022-11-14T09:06:50.222Z,23.08
2022-11-14T09:08:11.208Z,23.09
2022-11-14T09:09:32.813Z,23.10
2022-11-14T09:10:53.608Z,23.09
2022-11-14T09:12:14.958Z,23.09
2022-11-14T09:13:35.789Z,23.09
2022-11-14T09:14:57.870Z,23.09
2022-11-14T09:16:18.742Z,23.09
2022-11-14T09:17:39.609Z,23.09
2022-11-14T09:19:00.289Z,23.10
2022-11-14T09:20:24.741Z,23.09
2022-11-14T09:21:45.157Z,23.09
2022-11-14T09:23:07.183Z,23.09
2022-11-14T09:24:28.155Z,23.09
2022-11-14T09:25:49.185Z,23.08
2022-11-14T09:27:10.481Z,23.08
2022-11-14T09:28:31.924Z,23.09
2022-11-14T09:29:52.663Z,23.10
2022-11-14T09:31:14.620Z,23.09
2022-11-14T09:32:35.183Z,23.09
2022-11-14T09:33:56.157Z,23.09
2022-11-14T09:35:18.046Z,23.09
2022-11-14T09:36:38.823Z,23.09
2022-11-14T09:38:07.792Z,23.10
2022-11-14T09:39:28.875Z,23.09
2022-11-14T09:40:59.190Z,23.09
2022-11-14T09:42:29.657Z,23.08
2022-11-14T09:44:08.924Z,23.09
2022-11-14T09:45:29.914Z,23.08
2022-11-14T09:48:13.776Z,23.18
2022-11-14T14:04:36.277Z,20.15
2022-11-14T14:06:32.802Z,20.09
2022-11-14T14:08:13.530Z,20.23
2022-11-14T14:09:41.081Z,20.48
2022-11-14T14:11:20.693Z,20.68
2022-11-14T14:13:03.997Z,20.86
2022-11-14T14:14:52.242Z,21.05
2022-11-14T14:16:35.043Z,21.22
2022-11-14T14:18:13.961Z,21.41
2022-11-14T14:19:48.054Z,21.56
2022-11-14T14:21:35.995Z,21.69
2022-11-14T14:23:03.993Z,21.81
2022-11-14T14:24:48.746Z,21.94
2022-11-14T14:26:25.006Z,22.05
2022-11-14T14:29:21.769Z,22.39
2022-11-14T14:32:17.404Z,22.54
2022-11-14T14:34:56.135Z,22.68
2022-11-14T14:36:27.927Z,22.62
2022-11-14T14:37:53.176Z,22.68
2022-11-14T14:39:19.375Z,22.76
2022-11-14T14:40:40.525Z,22.81
2022-11-14T14:42:01.776Z,22.87
2022-11-14T14:43:28.932Z,22.91
2022-11-14T14:44:49.692Z,22.94
2022-11-14T14:46:11.576Z,22.98
2022-11-14T14:47:41.583Z,23.01
2022-11-14T14:49:02.793Z,23.04
2022-11-14T14:50:26.779Z,23.08
2022-11-14T14:51:47.552Z,23.10
2022-11-14T14:54:36.015Z,23.26
2022-11-14T14:56:01.773Z,23.17
2022-11-14T14:57:24.359Z,23.17
2022-11-14T14:58:45.272Z,23.19
2022-11-14T15:01:35.211Z,23.35
2022-11-14T15:02:56.826Z,23.26
2022-11-14T15:04:18.848Z,23.27
2022-11-14T15:05:39.620Z,23.28
2022-11-14T15:07:01.474Z,23.30
2022-11-14T15:08:22.279Z,23.32
2022-11-14T15:09:53.526Z,23.33
2022-11-14T15:11:16.151Z,23.33
2022-11-14T15:12:36.904Z,23.34
2022-11-14T15:13:57.818Z,23.34
2022-11-14T15:15:20.185Z,23.35
2022-11-14T15:16:40.697Z,23.37
2022-11-14T15:18:03.074Z,23.38
2022-11-14T15:19:25.252Z,23.37
2022-11-14T15:20:48.105Z,23.39
2022-11-14T15:22:18.314Z,23.40
2022-11-14T15:23:39.684Z,23.41
2022-11-14T15:26:29.714Z,23.53
2022-11-14T15:27:54.006Z,23.43
2022-11-14T15:30:37.420Z,23.54
2022-11-14T15:32:02.416Z,23.44
2022-11-14T15:33:36.222Z,23.45
2022-11-14T15:35:09.099Z,23.45
2022-11-14T15:36:29.621Z,23.44
2022-11-14T15:38:43.600Z,23.44
2022-11-14T15:39:37.417Z,23.46
2022-11-14T15:41:16.648Z,23.46
2022-11-14T15:42:38.302Z,23.45
2022-11-14T15:43:59.329Z,23.45
2022-11-14T15:45:40.827Z,23.45
2022-11-14T15:47:01.800Z,23.45
2022-11-14T15:48:22.843Z,23.44
2022-11-14T15:50:05.252Z,23.45
2022-11-14T15:51:48.904Z,23.46
2022-11-14T15:53:21.713Z,23.45
2022-11-14T15:54:42.341Z,23.45
2022-11-14T15:56:03.582Z,23.46
2022-11-14T15:57:24.002Z,23.45
2022-11-14T15:58:49.221Z,23.45
2022-11-14T16:00:13.401Z,23.45
2022-11-14T16:01:34.817Z,23.46
2022-11-14T16:02:56.901Z,23.47
2022-11-14T16:04:19.352Z,23.47
2022-11-14T16:05:39.867Z,23.49
2022-11-14T16:07:00.202Z,23.49
2022-11-14T16:08:20.854Z,23.50
2022-11-14T16:09:41.828Z,23.44
2022-11-14T16:11:02.641Z,23.51
2022-11-14T16:12:23.656Z,23.52
2022-11-14T16:13:47.060Z,23.52
2022-11-14T16:15:08.663Z,23.52
2022-11-14T16:16:30.064Z,23.52
2022-11-14T16:17:50.783Z,23.52
2022-11-14T16:19:14.833Z,23.52
2022-11-14T16:20:36.570Z,23.52
2022-11-14T16:21:59.839Z,23.52
2022-11-14T16:23:20.477Z,23.52
2022-11-14T16:24:41.808Z,23.52
2022-11-14T16:26:02.369Z,23.52
2022-11-14T16:27:26.581Z,23.51
2022-11-14T16:28:47.910Z,23.50
2022-11-14T16:30:13.123Z,23.51
2022-11-14T16:31:34.080Z,23.51
2022-11-14T16:32:54.786Z,23.51
2022-11-14T16:34:18.672Z,23.52
2022-11-14T16:35:41.174Z,23.51
2022-11-14T16:37:01.940Z,23.52
2022-11-14T16:38:23.167Z,23.52
2022-11-14T16:39:43.706Z,23.51
2022-11-14T16:41:08.736Z,23.53
2022-11-14T16:42:29.714Z,23.54
2022-11-14T16:43:55.767Z,23.54
2022-11-14T16:45:18.547Z,23.55
2022-11-14T16:46:39.349Z,23.56
2022-11-14T16:48:00.092Z,23.56
2022-11-14T16:49:21.668Z,23.55
2022-11-14T16:50:42.345Z,23.55
2022-11-14T16:52:04.134Z,23.55
2022-11-14T16:53:25.235Z,23.55
2022-11-14T16:54:45.688Z,23.56
2022-11-14T16:56:08.698Z,23.55
2022-11-14T16:57:30.075Z,23.57
2022-11-14T16:58:54.484Z,23.56
2022-11-14T17:00:17.409Z,23.57
2022-11-14T17:01:39.024Z,23.57
2022-11-14T17:03:00.578Z,23.57
2022-11-14T17:04:22.629Z,23.56
2022-11-14T17:06:56.869Z,23.69
2022-11-14T17:08:19.281Z,23.59
2022-11-14T17:09:39.811Z,23.59
2022-11-14T17:11:00.865Z,23.61
2022-11-14T17:12:21.641Z,23.61
2022-11-14T17:13:42.740Z,23.62
2022-11-14T17:15:05.018Z,23.63
2022-11-14T17:16:26.617Z,23.63
2022-11-14T17:17:47.419Z,23.64
2022-11-14T17:19:08.215Z,23.64
2022-11-14T17:20:28.970Z,23.65
2022-11-14T17:21:50.409Z,23.64
2022-11-14T17:23:11.040Z,23.66
2022-11-14T17:24:31.720Z,23.67
2022-11-14T17:25:53.675Z,23.67
2022-11-14T17:27:14.214Z,23.67
2022-11-14T17:28:36.409Z,23.67
2022-11-14T17:29:56.912Z,23.66
2022-11-14T17:31:18.079Z,23.67
2022-11-14T17:32:39.388Z,23.68
2022-11-14T17:34:00.449Z,23.69
2022-11-14T17:35:22.537Z,23.69
2022-11-14T17:36:44.059Z,23.69
2022-11-14T17:38:04.443Z,23.70
2022-11-14T17:39:25.494Z,23.71
2022-11-14T17:40:46.207Z,23.69
2022-11-14T17:42:08.004Z,23.71
2022-11-14T17:43:34.327Z,23.59
2022-11-14T17:44:52.682Z,23.71
2022-11-14T17:46:16.189Z,23.69
2022-11-14T17:47:36.860Z,23.69
2022-11-14T17:48:58.890Z,23.69
2022-11-14T17:50:20.200Z,23.67
2022-11-14T17:51:41.349Z,23.65
2022-11-14T17:53:02.060Z,23.64
2022-11-14T17:54:22.935Z,23.62
2022-11-14T17:55:44.026Z,23.60
2022-11-14T17:57:05.026Z,23.59
2022-11-14T17:58:30.340Z,23.57
2022-11-14T17:59:51.477Z,23.56
2022-11-14T18:01:14.784Z,23.55
2022-11-14T18:02:36.206Z,23.53
2022-11-14T18:04:01.760Z,23.52
2022-11-14T18:05:20.101Z,23.50
2022-11-14T18:06:40.939Z,23.51
2022-11-14T18:08:02.606Z,23.50
2022-11-14T18:09:23.301Z,23.49
2022-11-14T18:10:44.361Z,23.50
2022-11-14T18:12:05.419Z,23.49
2022-11-14T18:13:26.444Z,23.49
2022-11-14T18:14:47.498Z,23.49
2022-11-14T18:17:23.314Z,23.57
2022-11-14T18:19:58.036Z,23.57
2022-11-14T18:21:21.579Z,23.46
2022-11-14T18:22:44.501Z,23.45
2022-11-14T18:24:05.863Z,23.45
2022-11-14T18:25:28.204Z,23.45
2022-11-14T18:26:49.362Z,23.46
2022-11-14T18:28:10.575Z,23.46
2022-11-14T18:29:32.939Z,23.46
2022-11-14T18:30:55.487Z,23.47
2022-11-14T18:32:17.650Z,23.48
2022-11-14T18:33:38.717Z,23.47
2022-11-14T18:34:59.779Z,23.45
2022-11-14T18:36:23.939Z,23.45
2022-11-14T18:37:45.589Z,23.43
2022-11-14T18:39:06.890Z,23.44
2022-11-14T18:40:29.376Z,23.43
2022-11-14T18:41:49.760Z,23.42
2022-11-14T18:43:10.673Z,23.42
2022-11-14T18:44:31.496Z,23.42
2022-11-14T18:45:53.695Z,23.42
2022-11-14T18:47:15.605Z,23.41
2022-11-14T18:48:37.434Z,23.41
2022-11-14T18:49:57.873Z,23.41
2022-11-14T18:51:20.409Z,23.38
2022-11-14T18:52:43.028Z,23.37
2022-11-14T18:54:03.554Z,23.37
2022-11-14T18:55:25.110Z,23.37
2022-11-14T18:56:47.261Z,23.37
2022-11-14T18:58:08.530Z,23.34
2022-11-14T18:59:29.829Z,23.34
2022-11-14T19:00:50.695Z,23.34
2022-11-14T19:02:11.143Z,23.35
2022-11-14T19:03:32.200Z,23.35
2022-11-14T19:04:53.198Z,23.35
2022-11-14T19:06:14.729Z,23.33
2022-11-14T19:07:36.689Z,23.34
2022-11-14T19:08:58.377Z,23.33
2022-11-14T19:10:19.441Z,23.34
2022-11-14T19:11:40.758Z,23.34
2022-11-14T19:13:01.191Z,23.35
2022-11-14T19:14:23.113Z,23.34
2022-11-14T19:15:43.905Z,23.34
2022-11-14T19:17:06.045Z,23.34
2022-11-14T19:18:27.164Z,23.35
2022-11-14T19:19:48.888Z,23.36
2022-11-14T19:21:09.662Z,23.37
2022-11-14T19:22:30.904Z,23.37
2022-11-14T19:23:51.691Z,23.37
2022-11-14T19:25:13.666Z,23.35
2022-11-14T19:26:34.533Z,23.34
2022-11-14T19:27:55.401Z,23.34
2022-11-14T19:29:16.104Z,23.35
2022-11-14T19:30:36.985Z,23.34
2022-11-14T19:31:58.000Z,23.35
2022-11-14T19:33:20.066Z,23.35
2022-11-14T19:34:41.883Z,23.35
2022-11-14T19:36:07.489Z,23.34
2022-11-14T19:37:29.101Z,23.33
2022-11-14T19:38:54.267Z,23.34
2022-11-14T19:40:16.547Z,23.34
2022-11-14T19:41:37.791Z,23.34
2022-11-14T19:42:59.451Z,23.34
2022-11-14T19:44:20.248Z,23.33
2022-11-14T19:45:42.050Z,23.32
2022-11-14T19:47:02.957Z,23.32
2022-11-14T19:48:23.731Z,23.32
2022-11-14T19:49:44.718Z,23.30
2022-11-14T19:51:09.782Z,23.30
2022-11-14T19:52:30.452Z,23.30
2022-11-14T19:53:51.072Z,23.30
2022-11-14T19:55:11.988Z,23.29
2022-11-14T19:56:32.596Z,23.29
2022-11-14T19:57:53.672Z,23.30
2022-11-14T19:59:17.968Z,23.29
2022-11-14T20:00:37.548Z,23.30
2022-11-14T20:01:58.048Z,23.32
2022-11-14T20:03:19.649Z,23.31
2022-11-14T20:04:44.396Z,23.31
2022-11-14T20:06:13.591Z,23.31
2022-11-14T20:07:34.334Z,23.30
2022-11-14T20:08:55.675Z,23.30
2022-11-14T20:10:18.252Z,23.29
2022-11-14T20:11:39.197Z,23.28
2022-11-14T20:13:03.440Z,23.26
2022-11-14T20:14:24.505Z,23.27
2022-11-14T20:15:45.352Z,23.25
2022-11-14T20:17:07.265Z,23.25
2022-11-14T20:18:30.951Z,23.26
2022-11-14T20:19:51.682Z,23.27
2022-11-14T20:21:13.313Z,23.25
2022-11-14T20:22:34.489Z,23.25
2022-11-14T20:25:13.451Z,23.37
2022-11-14T20:26:35.116Z,23.25
2022-11-14T20:27:56.736Z,23.24
2022-11-14T20:29:17.741Z,23.25
2022-11-14T20:30:39.559Z,23.24
2022-11-14T20:32:02.372Z,23.25
2022-11-14T20:33:23.457Z,23.25
2022-11-14T20:34:46.765Z,23.24
2022-11-14T20:36:10.597Z,23.24
2022-11-14T20:37:32.586Z,23.24
2022-11-14T20:38:54.366Z,23.24
2022-11-14T20:40:16.722Z,23.24
2022-11-14T20:41:37.822Z,23.25
2022-11-14T20:42:58.327Z,23.23
2022-11-14T20:44:20.354Z,23.21
2022-11-14T20:45:41.218Z,23.21
2022-11-14T20:47:07.137Z,23.21
2022-11-14T20:48:25.891Z,23.20
2022-11-14T20:49:47.839Z,23.20
2022-11-14T20:51:16.882Z,23.20
2022-11-14T20:52:39.388Z,23.20
2022-11-14T20:54:02.273Z,23.20
2022-11-14T20:55:24.212Z,23.20
2022-11-14T20:56:44.868Z,23.20
2022-11-14T20:58:05.618Z,23.19
2022-11-14T20:59:26.606Z,23.20
2022-11-14T21:00:51.668Z,23.21
2022-11-14T21:02:12.289Z,23.21
2022-11-14T21:03:34.365Z,23.21
2022-11-14T21:04:56.311Z,23.22
2022-11-14T21:06:17.172Z,23.23
2022-11-14T21:07:39.065Z,23.22
2022-11-14T21:08:59.973Z,23.22
2022-11-14T21:10:21.199Z,23.22
2022-11-14T21:11:42.082Z,23.23
2022-11-14T21:13:07.698Z,23.24
2022-11-14T21:14:28.295Z,23.25
2022-11-14T21:15:49.594Z,23.24
2022-11-14T21:17:10.503Z,23.24
2022-11-14T21:18:33.736Z,23.24
2022-11-14T21:19:54.788Z,23.23
2022-11-14T21:21:17.790Z,23.22
2022-11-14T21:22:39.343Z,23.23
2022-11-14T21:24:00.142Z,23.22
2022-11-14T21:25:21.532Z,23.22
2022-11-14T21:26:42.479Z,23.21
2022-11-14T21:28:04.447Z,23.21
2022-11-14T21:29:26.804Z,23.22
2022-11-14T21:30:48.399Z,23.23
2022-11-14T21:32:08.875Z,23.24
2022-11-14T21:33:31.002Z,23.25
2022-11-14T21:34:52.781Z,23.24
2022-11-14T21:36:43.146Z,23.26
2022-11-14T21:37:36.827Z,23.27
2022-11-14T21:38:59.853Z,23.28
2022-11-14T21:40:21.404Z,23.29
2022-11-14T21:41:42.843Z,23.31
2022-11-14T21:43:03.418Z,23.32
2022-11-14T21:44:24.152Z,23.32
2022-11-14T21:45:54.658Z,23.32
2022-11-14T21:47:15.588Z,23.33
2022-11-14T21:48:41.481Z,23.33
2022-11-14T21:50:01.827Z,23.33
2022-11-14T21:51:24.341Z,23.33
2022-11-14T21:52:44.828Z,23.32
2022-11-14T21:54:06.982Z,23.33
2022-11-14T21:55:27.979Z,23.32
2022-11-14T21:56:48.621Z,23.32
2022-11-14T21:58:11.420Z,23.33
2022-11-14T21:59:32.838Z,23.33
2022-11-14T22:00:53.617Z,23.34
2022-11-14T22:02:15.054Z,23.35
2022-11-14T22:03:37.264Z,23.36
2022-11-14T22:04:58.634Z,23.37
2022-11-14T22:06:19.572Z,23.37
2022-11-14T22:07:40.253Z,23.35
2022-11-14T22:09:01.159Z,23.35
2022-11-14T22:10:22.848Z,23.35
2022-11-14T22:11:43.717Z,23.38
2022-11-14T22:13:04.364Z,23.39
2022-11-14T22:14:25.063Z,23.41
2022-11-14T22:15:45.947Z,23.42
2022-11-14T22:17:06.340Z,23.43
2022-11-14T22:18:27.944Z,23.43
2022-11-14T22:19:48.596Z,23.43
2022-11-14T22:21:09.853Z,23.43
2022-11-14T22:22:30.841Z,23.43
2022-11-14T22:23:53.733Z,23.43
2022-11-14T22:25:15.045Z,23.43
2022-11-14T22:26:36.400Z,23.43
2022-11-14T22:27:57.825Z,23.45
2022-11-14T22:29:18.660Z,23.45
2022-11-14T22:30:39.677Z,23.45
2022-11-14T22:32:00.809Z,23.44
2022-11-14T22:33:22.609Z,23.44
2022-11-14T22:34:45.057Z,23.43
2022-11-14T22:36:14.180Z,23.44
2022-11-14T22:37:35.182Z,23.43
2022-11-14T22:38:55.948Z,23.42
2022-11-14T22:40:17.242Z,23.44
2022-11-14T22:41:38.727Z,23.43
2022-11-14T22:43:00.987Z,23.44
2022-11-14T22:44:21.743Z,23.44
2022-11-14T22:45:43.534Z,23.44
2022-11-14T22:47:04.257Z,23.45
2022-11-14T22:48:25.896Z,23.44
2022-11-14T22:49:47.389Z,23.45
2022-11-14T22:51:18.760Z,23.45
2022-11-14T22:52:39.415Z,23.46
2022-11-14T22:54:00.593Z,23.47
2022-11-14T22:55:21.346Z,23.47
2022-11-14T22:56:42.640Z,23.47
2022-11-14T22:58:04.378Z,23.48
2022-11-14T22:59:25.327Z,23.47
2022-11-14T23:00:46.287Z,23.47
2022-11-14T23:02:06.928Z,23.46
2022-11-14T23:03:27.708Z,23.46
2022-11-14T23:04:48.525Z,23.44
2022-11-14T23:06:11.352Z,23.44
2022-11-14T23:07:32.320Z,23.45
2022-11-14T23:08:53.294Z,23.45
2022-11-14T23:10:15.377Z,23.46
2022-11-14T23:11:36.269Z,23.48
2022-11-14T23:12:57.660Z,23.48
2022-11-14T23:14:18.597Z,23.48
2022-11-14T23:15:39.120Z,23.47
2022-11-14T23:17:00.148Z,23.47
2022-11-14T23:18:22.693Z,23.48
2022-11-14T23:19:43.660Z,23.48
2022-11-14T23:21:11.751Z,23.48
2022-11-14T23:22:33.395Z,23.49
2022-11-14T23:23:56.154Z,23.50
2022-11-14T23:25:16.802Z,23.51
2022-11-14T23:26:37.736Z,23.51
2022-11-14T23:27:58.134Z,23.51
2022-11-14T23:29:20.503Z,23.52
2022-11-14T23:30:41.347Z,23.52
2022-11-14T23:32:02.038Z,23.54
2022-11-14T23:33:22.842Z,23.54
2022-11-14T23:34:43.873Z,23.54
2022-11-14T23:36:06.148Z,23.55
2022-11-14T23:37:27.323Z,23.55
2022-11-14T23:38:47.622Z,23.55
2022-11-14T23:40:09.965Z,23.55
2022-11-14T23:41:30.392Z,23.55
2022-11-14T23:42:51.452Z,23.55
2022-11-14T23:44:12.214Z,23.54
2022-11-14T23:45:35.190Z,23.54
2022-11-14T23:46:56.084Z,23.54
2022-11-14T23:48:17.943Z,23.54
2022-11-14T23:49:38.900Z,23.54
2022-11-14T23:51:00.515Z,23.55
2022-11-14T23:52:21.011Z,23.54
2022-11-14T23:53:42.001Z,23.56
2022-11-14T23:55:03.215Z,23.55
2022-11-14T23:56:23.694Z,23.55
2022-11-14T23:57:44.565Z,23.54
2022-11-14T23:59:05.490Z,23.55
